Hauptseite
METAR-TAF:

METAR-TAF

Flughäfen :

Heeresflugplatz Bückeburg

Bückeburg, Deutschland

Breite: 52-17N, Länge: 009-05E, Höhe: 70 m

Beobachtung

Neuester Wetterbericht von vor 38 Minuten, um 13:20 UTC
Wind 8 kt aus Süd
Temperatur 26°C
Luftfeuchtigkeit 32%
Luftdruck 1012 hPa
Sichtweite 10 km oder mehr
Leicht bewölkt in der Höhe von 12000 ft

METAR: ETHB 151320Z 19008KT 9999 FEW120 26/08 Q1012 BLU+BLU+

Zeit: 15:58 (13:58 UTC)

Prognose

Neuester Wetterbericht von vor 54 Minuten, um 13:04 UTC
Gültige Prognose vom 15 um 14 UTC bis 15 um 23 UTC
Wind 5 kt aus Süd/Südwest
Sichtweite 10 km oder mehr
Leicht bewölkt in der Höhe von 12000 ft

TAF: ETHB 151304Z 1514/1523 20005KT 9999 NSW FEW120

Wetterbeobachtungen und Prognosen von mehr als 4000 Flughäfen (METAR und TAF Bericht).

Die verfügbaren Stationen werden durch gelbe und rote Markierungen auf der Karte dargestellt.

Führen Sie die Maus auf sie, um den Namen der Station zu sehen.

Darauf klicken, um die Beobachtung von Wetterbeobachtungen und Prognosen zu sehen.

Um die Karte zu ändern : klicken Sie auf den grünen Tasten mit einem schwarzen Kreuz Zum Vergrößern, auf den grünen Button mit einem Gedankenstrich zu verkleinern, oder auf die grünen Pfeile für benachbarte Karten.


METAR-TAF: